EJU342Q LFKB-LFBD
Flight info
| Callsign | EJU342Q |
|---|---|
| Flight time | 1h 32m |
| Altitude | 32000 |
| Route | SODRI A3 OMARD DCT STP DCT PADKO DCT FJR DCT FISTO DCT MIRBA |
| Aircraft | A320/M-SDE3FGHIRWY/LB1 |
Departure
| Time | 2026-04-21 04:35 |
|---|---|
| Airport | Bastia-Poretta International airport (LFKB) |
Arrival
| Time | 2026-04-21 06:07 |
|---|---|
| Airport | Bordeaux–Mérignac Airport (LFBD) |
| Time | Latitude | Longitude | Altitude | Speed | Heading |
|---|---|---|---|---|---|
| 2026-04-21 03:51 | 42.54676 | 9.48230 | 38 ft | 0 kts | 282° |
| 2026-04-21 04:24 | 42.54674 | 9.48246 | 37 ft | 4 kts | 282° |
| 2026-04-21 04:24 | 42.54668 | 9.48280 | 36 ft | 4 kts | 282° |
| 2026-04-21 04:25 | 42.54662 | 9.48314 | 34 ft | 4 kts | 282° |
| 2026-04-21 04:25 | 42.54657 | 9.48348 | 33 ft | 3 kts | 282° |
| 2026-04-21 04:25 | 42.54656 | 9.48354 | 33 ft | 0 kts | 282° |
| 2026-04-21 04:28 | 42.54657 | 9.48352 | 33 ft | 2 kts | 295° |
| 2026-04-21 04:28 | 42.54687 | 9.48337 | 32 ft | 6 kts | 344° |
| 2026-04-21 04:28 | 42.54730 | 9.48321 | 32 ft | 7 kts | 344° |
| 2026-04-21 04:28 | 42.54793 | 9.48296 | 32 ft | 9 kts | 343° |
| 2026-04-21 04:29 | 42.54846 | 9.48273 | 34 ft | 7 kts | 342° |
| 2026-04-21 04:29 | 42.54891 | 9.48254 | 33 ft | 8 kts | 343° |
| 2026-04-21 04:29 | 42.54966 | 9.48233 | 34 ft | 13 kts | 356° |
| 2026-04-21 04:29 | 42.55062 | 9.48205 | 37 ft | 17 kts | 342° |
| 2026-04-21 04:30 | 42.55172 | 9.48157 | 38 ft | 17 kts | 342° |
| 2026-04-21 04:30 | 42.55294 | 9.48108 | 35 ft | 20 kts | 343° |
| 2026-04-21 04:30 | 42.55437 | 9.48048 | 33 ft | 23 kts | 342° |
| 2026-04-21 04:30 | 42.55566 | 9.47993 | 31 ft | 18 kts | 342° |
| 2026-04-21 04:31 | 42.55690 | 9.47941 | 31 ft | 19 kts | 343° |
| 2026-04-21 04:31 | 42.55830 | 9.47883 | 27 ft | 21 kts | 343° |
| 2026-04-21 04:31 | 42.55918 | 9.47875 | 26 ft | 12 kts | 28° |
| 2026-04-21 04:31 | 42.55957 | 9.47971 | 24 ft | 12 kts | 71° |
| 2026-04-21 04:32 | 42.56003 | 9.48054 | 23 ft | 11 kts | 16° |
| 2026-04-21 04:32 | 42.56091 | 9.48027 | 26 ft | 16 kts | 343° |
| 2026-04-21 04:32 | 42.56197 | 9.47983 | 22 ft | 17 kts | 342° |
| 2026-04-21 04:32 | 42.56272 | 9.47901 | 20 ft | 7 kts | 313° |
| 2026-04-21 04:33 | 42.56310 | 9.47884 | 21 ft | 5 kts | 11° |
| 2026-04-21 04:33 | 42.56326 | 9.47919 | 21 ft | 5 kts | 100° |
| 2026-04-21 04:33 | 42.56302 | 9.47940 | 21 ft | 0 kts | 163° |
| 2026-04-21 04:34 | 42.56292 | 9.47944 | 22 ft | 14 kts | 163° |
| 2026-04-21 04:34 | 42.55922 | 9.48098 | 24 ft | 92 kts | 163° |
| 2026-04-21 04:34 | 42.55117 | 9.48435 | 38 ft | 148 kts | 163° |
| 2026-04-21 04:34 | 42.54048 | 9.48883 | 436 ft | 162 kts | 164° |
| 2026-04-21 04:35 | 42.53027 | 9.49519 | 1146 ft | 165 kts | 151° |
| 2026-04-21 04:35 | 42.51994 | 9.50365 | 1599 ft | 181 kts | 149° |
| 2026-04-21 04:35 | 42.50886 | 9.51308 | 2086 ft | 195 kts | 149° |
| 2026-04-21 04:35 | 42.49688 | 9.52336 | 2519 ft | 214 kts | 149° |
| 2026-04-21 04:36 | 42.48353 | 9.53461 | 2938 ft | 238 kts | 149° |
| 2026-04-21 04:36 | 42.46874 | 9.54694 | 3467 ft | 259 kts | 149° |
| 2026-04-21 04:36 | 42.45313 | 9.55989 | 4306 ft | 266 kts | 149° |
| 2026-04-21 04:36 | 42.43728 | 9.57341 | 5202 ft | 272 kts | 143° |
| 2026-04-21 04:37 | 42.42563 | 9.59360 | 6011 ft | 280 kts | 110° |
| 2026-04-21 04:37 | 42.42392 | 9.61980 | 6830 ft | 286 kts | 77° |
| 2026-04-21 04:37 | 42.43303 | 9.64349 | 7654 ft | 288 kts | 43° |
| 2026-04-21 04:37 | 42.45012 | 9.65704 | 8464 ft | 288 kts | 11° |
| 2026-04-21 04:38 | 42.46984 | 9.65619 | 9270 ft | 287 kts | 339° |
| 2026-04-21 04:38 | 42.48626 | 9.64133 | 10078 ft | 287 kts | 310° |
| 2026-04-21 04:38 | 42.49847 | 9.61890 | 10470 ft | 307 kts | 301° |
| 2026-04-21 04:38 | 42.50955 | 9.59332 | 11022 ft | 319 kts | 299° |
| 2026-04-21 04:39 | 42.52072 | 9.56720 | 11808 ft | 322 kts | 299° |
| 2026-04-21 04:39 | 42.53206 | 9.54097 | 12639 ft | 323 kts | 301° |
| 2026-04-21 04:39 | 42.54511 | 9.51617 | 13471 ft | 324 kts | 307° |
| 2026-04-21 04:39 | 42.55955 | 9.49271 | 14284 ft | 325 kts | 309° |
| 2026-04-21 04:40 | 42.57388 | 9.46947 | 15006 ft | 326 kts | 304° |
| 2026-04-21 04:40 | 42.58609 | 9.44347 | 15706 ft | 328 kts | 300° |
| 2026-04-21 04:40 | 42.59762 | 9.41670 | 16390 ft | 329 kts | 298° |
| 2026-04-21 04:40 | 42.60884 | 9.38943 | 17040 ft | 332 kts | 298° |
| 2026-04-21 04:41 | 42.61994 | 9.36176 | 17669 ft | 335 kts | 297° |
| 2026-04-21 04:41 | 42.63119 | 9.33341 | 18311 ft | 338 kts | 297° |
| 2026-04-21 04:41 | 42.64221 | 9.30567 | 18923 ft | 340 kts | 297° |
| 2026-04-21 04:41 | 42.65353 | 9.27735 | 19531 ft | 343 kts | 298° |
| 2026-04-21 04:42 | 42.66499 | 9.24883 | 20115 ft | 345 kts | 298° |
| 2026-04-21 04:42 | 42.67657 | 9.22011 | 20703 ft | 348 kts | 298° |
| 2026-04-21 04:42 | 42.68823 | 9.19113 | 21277 ft | 350 kts | 298° |
| 2026-04-21 04:42 | 42.69996 | 9.16197 | 21851 ft | 353 kts | 298° |
| 2026-04-21 04:43 | 42.71178 | 9.13256 | 22416 ft | 356 kts | 297° |
| 2026-04-21 04:43 | 42.72367 | 9.10293 | 22950 ft | 358 kts | 297° |
| 2026-04-21 04:43 | 42.73565 | 9.07308 | 23478 ft | 361 kts | 297° |
| 2026-04-21 04:43 | 42.74768 | 9.04302 | 23985 ft | 363 kts | 297° |
| 2026-04-21 04:44 | 42.75979 | 9.01272 | 24477 ft | 365 kts | 297° |
| 2026-04-21 04:44 | 42.77195 | 8.98228 | 24955 ft | 368 kts | 297° |
| 2026-04-21 04:44 | 42.78418 | 8.95164 | 25422 ft | 369 kts | 297° |
| 2026-04-21 04:44 | 42.79647 | 8.92082 | 25868 ft | 371 kts | 297° |
| 2026-04-21 04:45 | 42.80882 | 8.88981 | 26291 ft | 373 kts | 297° |
| 2026-04-21 04:45 | 42.82121 | 8.85866 | 26712 ft | 375 kts | 297° |
| 2026-04-21 04:45 | 42.83365 | 8.82732 | 27123 ft | 377 kts | 297° |
| 2026-04-21 04:45 | 42.84613 | 8.79587 | 27518 ft | 378 kts | 297° |
| 2026-04-21 04:46 | 42.85869 | 8.76425 | 27899 ft | 380 kts | 297° |
| 2026-04-21 04:46 | 42.87128 | 8.73250 | 28283 ft | 382 kts | 297° |
| 2026-04-21 04:46 | 42.88391 | 8.70058 | 28641 ft | 383 kts | 297° |
| 2026-04-21 04:46 | 42.89658 | 8.66850 | 28995 ft | 385 kts | 297° |
| 2026-04-21 04:47 | 42.90928 | 8.63629 | 29329 ft | 387 kts | 297° |
| 2026-04-21 04:47 | 42.92203 | 8.60393 | 29660 ft | 388 kts | 297° |
| 2026-04-21 04:47 | 42.93483 | 8.57143 | 29977 ft | 390 kts | 297° |
| 2026-04-21 04:47 | 42.94770 | 8.53879 | 30290 ft | 391 kts | 297° |
| 2026-04-21 04:48 | 42.96058 | 8.50604 | 30585 ft | 393 kts | 297° |
| 2026-04-21 04:48 | 42.97351 | 8.47312 | 30877 ft | 394 kts | 297° |
| 2026-04-21 04:48 | 42.98646 | 8.44006 | 31149 ft | 396 kts | 297° |
| 2026-04-21 04:48 | 42.99506 | 8.41807 | 31336 ft | 396 kts | 297° |
| 2026-04-21 04:49 | 43.00993 | 8.37226 | 31820 ft | 395 kts | 287° |
| 2026-04-21 04:49 | 43.01713 | 8.31157 | 31923 ft | 379 kts | 276° |
| 2026-04-21 04:49 | 43.01944 | 8.27635 | 31928 ft | 367 kts | 278° |
| 2026-04-21 04:50 | 43.02287 | 8.24197 | 31933 ft | 366 kts | 281° |
| 2026-04-21 04:50 | 43.03193 | 8.17350 | 31930 ft | 366 kts | 282° |
| 2026-04-21 04:51 | 43.04136 | 8.10499 | 31928 ft | 367 kts | 282° |
| 2026-04-21 04:51 | 43.05018 | 8.03641 | 31936 ft | 366 kts | 281° |
| 2026-04-21 04:52 | 43.05867 | 7.96788 | 31933 ft | 366 kts | 281° |
| 2026-04-21 04:52 | 43.06705 | 7.89930 | 31932 ft | 365 kts | 281° |
| 2026-04-21 04:53 | 43.07540 | 7.83080 | 31925 ft | 365 kts | 281° |
| 2026-04-21 04:53 | 43.08381 | 7.76224 | 31927 ft | 366 kts | 281° |
| 2026-04-21 04:54 | 43.09226 | 7.69372 | 31933 ft | 365 kts | 281° |
| 2026-04-21 04:54 | 43.10053 | 7.62524 | 31923 ft | 364 kts | 281° |
| 2026-04-21 04:55 | 43.10886 | 7.55681 | 31925 ft | 364 kts | 281° |
| 2026-04-21 04:55 | 43.11712 | 7.48887 | 31930 ft | 364 kts | 281° |
| 2026-04-21 04:56 | 43.12527 | 7.42046 | 31924 ft | 364 kts | 281° |
| 2026-04-21 04:56 | 43.13337 | 7.35196 | 31927 ft | 364 kts | 281° |
| 2026-04-21 04:57 | 43.14143 | 7.28345 | 31923 ft | 364 kts | 281° |
| 2026-04-21 04:57 | 43.14953 | 7.21502 | 31926 ft | 364 kts | 281° |
| 2026-04-21 04:58 | 43.15753 | 7.14645 | 31922 ft | 365 kts | 281° |
| 2026-04-21 04:58 | 43.16546 | 7.07781 | 31927 ft | 365 kts | 280° |
| 2026-04-21 04:59 | 43.17342 | 7.00915 | 31930 ft | 365 kts | 281° |
| 2026-04-21 04:59 | 43.18134 | 6.94034 | 31931 ft | 366 kts | 281° |
| 2026-04-21 05:00 | 43.18917 | 6.87143 | 31933 ft | 366 kts | 280° |
| 2026-04-21 05:00 | 43.20080 | 6.76816 | 31936 ft | 366 kts | 280° |
| 2026-04-21 05:01 | 43.20854 | 6.69925 | 31939 ft | 366 kts | 280° |
| 2026-04-21 05:01 | 43.21626 | 6.63033 | 31938 ft | 366 kts | 280° |
| 2026-04-21 05:02 | 43.22009 | 6.56072 | 31939 ft | 368 kts | 274° |
| 2026-04-21 05:02 | 43.22110 | 6.49057 | 31943 ft | 368 kts | 274° |
| 2026-04-21 05:03 | 43.22209 | 6.42094 | 31943 ft | 368 kts | 274° |
| 2026-04-21 05:03 | 43.22301 | 6.35086 | 31947 ft | 367 kts | 274° |
| 2026-04-21 05:04 | 43.22392 | 6.28090 | 31946 ft | 366 kts | 274° |
| 2026-04-21 05:04 | 43.22475 | 6.21111 | 31932 ft | 366 kts | 273° |
| 2026-04-21 05:05 | 43.22551 | 6.14125 | 31940 ft | 367 kts | 274° |
| 2026-04-21 05:05 | 43.22627 | 6.07145 | 31939 ft | 366 kts | 273° |
| 2026-04-21 05:06 | 43.22696 | 6.00169 | 31936 ft | 366 kts | 273° |
| 2026-04-21 05:06 | 43.22760 | 5.93190 | 31937 ft | 366 kts | 273° |
| 2026-04-21 05:07 | 43.22823 | 5.86205 | 31927 ft | 366 kts | 273° |
| 2026-04-21 05:07 | 43.22884 | 5.79219 | 31933 ft | 366 kts | 273° |
| 2026-04-21 05:08 | 43.22944 | 5.72229 | 31934 ft | 367 kts | 273° |
| 2026-04-21 05:08 | 43.22993 | 5.65227 | 31941 ft | 368 kts | 273° |
| 2026-04-21 05:09 | 43.23035 | 5.58222 | 31944 ft | 367 kts | 273° |
| 2026-04-21 05:09 | 43.23077 | 5.51209 | 31947 ft | 368 kts | 273° |
| 2026-04-21 05:10 | 43.23119 | 5.44188 | 31945 ft | 368 kts | 272° |
| 2026-04-21 05:10 | 43.23146 | 5.37166 | 31946 ft | 368 kts | 272° |
| 2026-04-21 05:11 | 43.23933 | 5.30344 | 31947 ft | 365 kts | 290° |
| 2026-04-21 05:11 | 43.25663 | 5.23795 | 31947 ft | 366 kts | 290° |
| 2026-04-21 05:12 | 43.27381 | 5.17224 | 31945 ft | 366 kts | 290° |
| 2026-04-21 05:12 | 43.29091 | 5.10643 | 31946 ft | 366 kts | 290° |
| 2026-04-21 05:13 | 43.30797 | 5.04058 | 31946 ft | 366 kts | 290° |
| 2026-04-21 05:13 | 43.32504 | 4.97474 | 31946 ft | 366 kts | 289° |
| 2026-04-21 05:14 | 43.34208 | 4.90878 | 31940 ft | 367 kts | 290° |
| 2026-04-21 05:14 | 43.35913 | 4.84276 | 31946 ft | 367 kts | 290° |
| 2026-04-21 05:15 | 43.37613 | 4.77673 | 31933 ft | 367 kts | 289° |
| 2026-04-21 05:15 | 43.39305 | 4.71064 | 31944 ft | 366 kts | 289° |
| 2026-04-21 05:16 | 43.40980 | 4.64495 | 31938 ft | 367 kts | 289° |
| 2026-04-21 05:16 | 43.42664 | 4.57873 | 31930 ft | 367 kts | 289° |
| 2026-04-21 05:17 | 43.44348 | 4.51246 | 31943 ft | 367 kts | 289° |
| 2026-04-21 05:17 | 43.46029 | 4.44618 | 31944 ft | 367 kts | 289° |
| 2026-04-21 05:18 | 43.47702 | 4.37995 | 31947 ft | 367 kts | 289° |
| 2026-04-21 05:18 | 43.49379 | 4.31367 | 31951 ft | 367 kts | 289° |
| 2026-04-21 05:19 | 43.51047 | 4.24730 | 31951 ft | 367 kts | 289° |
| 2026-04-21 05:19 | 43.52707 | 4.18094 | 31953 ft | 367 kts | 289° |
| 2026-04-21 05:20 | 43.54362 | 4.11451 | 31953 ft | 366 kts | 289° |
| 2026-04-21 05:20 | 43.56015 | 4.04803 | 31954 ft | 367 kts | 289° |
| 2026-04-21 05:21 | 43.57671 | 3.98152 | 31952 ft | 367 kts | 290° |
| 2026-04-21 05:21 | 43.59778 | 3.91745 | 31951 ft | 367 kts | 294° |
| 2026-04-21 05:22 | 43.61919 | 3.85399 | 31955 ft | 368 kts | 294° |
| 2026-04-21 05:22 | 43.64072 | 3.79001 | 31958 ft | 367 kts | 294° |
| 2026-04-21 05:23 | 43.66215 | 3.72591 | 31958 ft | 367 kts | 294° |
| 2026-04-21 05:23 | 43.68357 | 3.66185 | 31958 ft | 367 kts | 294° |
| 2026-04-21 05:24 | 43.70503 | 3.59777 | 31960 ft | 367 kts | 294° |
| 2026-04-21 05:24 | 43.72645 | 3.53363 | 31958 ft | 368 kts | 294° |
| 2026-04-21 05:25 | 43.74780 | 3.46938 | 31959 ft | 368 kts | 294° |
| 2026-04-21 05:25 | 43.76908 | 3.40499 | 31957 ft | 368 kts | 294° |
| 2026-04-21 05:26 | 43.79043 | 3.34057 | 31957 ft | 368 kts | 294° |
| 2026-04-21 05:26 | 43.81172 | 3.27602 | 31958 ft | 368 kts | 294° |
| 2026-04-21 05:27 | 43.83288 | 3.21144 | 31961 ft | 368 kts | 294° |
| 2026-04-21 05:27 | 43.85413 | 3.14682 | 31961 ft | 368 kts | 294° |
| 2026-04-21 05:28 | 43.87539 | 3.08220 | 31959 ft | 369 kts | 294° |
| 2026-04-21 05:28 | 43.89655 | 3.01745 | 31958 ft | 369 kts | 294° |
| 2026-04-21 05:29 | 43.91767 | 2.95256 | 31957 ft | 369 kts | 294° |
| 2026-04-21 05:29 | 43.93876 | 2.88778 | 31960 ft | 369 kts | 294° |
| 2026-04-21 05:30 | 43.95985 | 2.82283 | 31963 ft | 369 kts | 294° |
| 2026-04-21 05:30 | 43.98094 | 2.75785 | 31966 ft | 369 kts | 293° |
| 2026-04-21 05:31 | 44.00177 | 2.69326 | 31968 ft | 369 kts | 293° |
| 2026-04-21 05:31 | 44.02272 | 2.62820 | 31972 ft | 368 kts | 293° |
| 2026-04-21 05:32 | 44.04359 | 2.56321 | 31977 ft | 368 kts | 293° |
| 2026-04-21 05:32 | 44.06438 | 2.49828 | 31980 ft | 367 kts | 293° |
| 2026-04-21 05:33 | 44.08508 | 2.43343 | 31980 ft | 367 kts | 293° |
| 2026-04-21 05:33 | 44.10575 | 2.36856 | 31974 ft | 367 kts | 293° |
| 2026-04-21 05:34 | 44.12644 | 2.30359 | 31970 ft | 367 kts | 293° |
| 2026-04-21 05:34 | 44.14712 | 2.23854 | 31969 ft | 368 kts | 293° |
| 2026-04-21 05:35 | 44.16775 | 2.17338 | 31974 ft | 368 kts | 293° |
| 2026-04-21 05:35 | 44.18834 | 2.10810 | 31976 ft | 368 kts | 293° |
| 2026-04-21 05:36 | 44.20892 | 2.04277 | 31978 ft | 368 kts | 293° |
| 2026-04-21 05:36 | 44.22943 | 1.97748 | 31973 ft | 368 kts | 293° |
| 2026-04-21 05:37 | 44.24986 | 1.91208 | 31979 ft | 368 kts | 293° |
| 2026-04-21 05:37 | 44.27029 | 1.84671 | 31976 ft | 368 kts | 293° |
| 2026-04-21 05:38 | 44.29075 | 1.78126 | 31970 ft | 368 kts | 293° |
| 2026-04-21 05:38 | 44.31116 | 1.71572 | 31973 ft | 368 kts | 292° |
| 2026-04-21 05:39 | 44.32799 | 1.66125 | 31973 ft | 368 kts | 292° |
| 2026-04-21 05:39 | 44.35158 | 1.58516 | 31974 ft | 367 kts | 292° |
| 2026-04-21 05:40 | 44.37180 | 1.51966 | 31978 ft | 367 kts | 292° |
| 2026-04-21 05:40 | 44.38871 | 1.46474 | 31972 ft | 367 kts | 292° |
| 2026-04-21 05:41 | 44.40879 | 1.39920 | 31972 ft | 367 kts | 292° |
| 2026-04-21 05:41 | 44.42882 | 1.33398 | 31647 ft | 361 kts | 292° |
| 2026-04-21 05:42 | 44.43860 | 1.30203 | 31330 ft | 355 kts | 292° |
| 2026-04-21 05:42 | 44.44822 | 1.27047 | 30913 ft | 351 kts | 292° |
| 2026-04-21 05:42 | 44.45775 | 1.23918 | 30460 ft | 348 kts | 292° |
| 2026-04-21 05:42 | 44.46719 | 1.20811 | 30008 ft | 346 kts | 292° |
| 2026-04-21 05:43 | 44.47646 | 1.17714 | 29563 ft | 344 kts | 292° |
| 2026-04-21 05:43 | 44.48557 | 1.14632 | 29121 ft | 342 kts | 292° |
| 2026-04-21 05:43 | 44.49465 | 1.11545 | 28391 ft | 351 kts | 292° |
| 2026-04-21 05:43 | 44.50396 | 1.08369 | 27894 ft | 353 kts | 292° |
| 2026-04-21 05:44 | 44.51328 | 1.05190 | 27400 ft | 353 kts | 292° |
| 2026-04-21 05:44 | 44.52262 | 1.02015 | 26913 ft | 352 kts | 292° |
| 2026-04-21 05:44 | 44.53194 | 0.98849 | 26418 ft | 350 kts | 292° |
| 2026-04-21 05:44 | 44.54120 | 0.95703 | 25941 ft | 349 kts | 292° |
| 2026-04-21 05:45 | 44.55042 | 0.92571 | 25476 ft | 347 kts | 292° |
| 2026-04-21 05:45 | 44.55955 | 0.89454 | 25010 ft | 345 kts | 292° |
| 2026-04-21 05:45 | 44.56862 | 0.86347 | 24559 ft | 343 kts | 292° |
| 2026-04-21 05:45 | 44.57763 | 0.83262 | 24117 ft | 341 kts | 292° |
| 2026-04-21 05:46 | 44.58661 | 0.80193 | 23684 ft | 339 kts | 292° |
| 2026-04-21 05:46 | 44.59553 | 0.77133 | 23260 ft | 338 kts | 292° |
| 2026-04-21 05:46 | 44.60436 | 0.74092 | 22859 ft | 335 kts | 291° |
| 2026-04-21 05:46 | 44.61313 | 0.71074 | 22452 ft | 333 kts | 291° |
| 2026-04-21 05:47 | 44.62185 | 0.68072 | 22054 ft | 331 kts | 292° |
| 2026-04-21 05:47 | 44.63053 | 0.65088 | 21649 ft | 329 kts | 292° |
| 2026-04-21 05:47 | 44.63913 | 0.62125 | 21245 ft | 327 kts | 291° |
| 2026-04-21 05:47 | 44.64765 | 0.59180 | 20843 ft | 325 kts | 291° |
| 2026-04-21 05:48 | 44.65613 | 0.56253 | 20421 ft | 323 kts | 292° |
| 2026-04-21 05:48 | 44.66454 | 0.53344 | 20009 ft | 320 kts | 291° |
| 2026-04-21 05:48 | 44.67288 | 0.50453 | 19582 ft | 318 kts | 291° |
| 2026-04-21 05:48 | 44.68114 | 0.47578 | 19162 ft | 317 kts | 291° |
| 2026-04-21 05:49 | 44.68934 | 0.44715 | 18739 ft | 315 kts | 291° |
| 2026-04-21 05:49 | 44.69749 | 0.41868 | 18310 ft | 313 kts | 291° |
| 2026-04-21 05:49 | 44.70563 | 0.39035 | 17888 ft | 312 kts | 291° |
| 2026-04-21 05:49 | 44.71372 | 0.36219 | 17470 ft | 310 kts | 291° |
| 2026-04-21 05:50 | 44.72176 | 0.33413 | 17052 ft | 309 kts | 291° |
| 2026-04-21 05:50 | 44.73007 | 0.30608 | 16667 ft | 318 kts | 293° |
| 2026-04-21 05:50 | 44.73920 | 0.27733 | 16278 ft | 324 kts | 294° |
| 2026-04-21 05:50 | 44.74867 | 0.24848 | 15891 ft | 325 kts | 295° |
| 2026-04-21 05:51 | 44.75822 | 0.21967 | 15495 ft | 324 kts | 294° |
| 2026-04-21 05:51 | 44.76769 | 0.19096 | 15106 ft | 323 kts | 294° |
| 2026-04-21 05:51 | 44.77704 | 0.16229 | 14721 ft | 322 kts | 294° |
| 2026-04-21 05:51 | 44.78631 | 0.13369 | 14332 ft | 320 kts | 294° |
| 2026-04-21 05:52 | 44.79549 | 0.10520 | 13956 ft | 319 kts | 294° |
| 2026-04-21 05:52 | 44.80461 | 0.07682 | 13584 ft | 318 kts | 294° |
| 2026-04-21 05:52 | 44.81368 | 0.04848 | 13193 ft | 317 kts | 294° |
| 2026-04-21 05:52 | 44.82268 | 0.02024 | 12815 ft | 315 kts | 294° |
| 2026-04-21 05:53 | 44.83164 | -0.00784 | 12445 ft | 314 kts | 294° |
| 2026-04-21 05:53 | 44.84060 | -0.03593 | 12069 ft | 315 kts | 294° |
| 2026-04-21 05:53 | 44.84954 | -0.06385 | 11823 ft | 307 kts | 294° |
| 2026-04-21 05:53 | 44.85805 | -0.09044 | 11697 ft | 296 kts | 293° |
| 2026-04-21 05:54 | 44.86631 | -0.11640 | 11569 ft | 285 kts | 293° |
| 2026-04-21 05:54 | 44.87425 | -0.14145 | 11443 ft | 275 kts | 293° |
| 2026-04-21 05:54 | 44.88192 | -0.16561 | 11315 ft | 265 kts | 293° |
| 2026-04-21 05:54 | 44.88847 | -0.18938 | 11187 ft | 256 kts | 283° |
| 2026-04-21 05:55 | 44.89041 | -0.21388 | 11009 ft | 250 kts | 272° |
| 2026-04-21 05:55 | 44.89111 | -0.23833 | 10809 ft | 249 kts | 272° |
| 2026-04-21 05:55 | 44.89185 | -0.26270 | 10571 ft | 249 kts | 272° |
| 2026-04-21 05:55 | 44.89260 | -0.28707 | 10333 ft | 249 kts | 272° |
| 2026-04-21 05:56 | 44.89336 | -0.31145 | 10084 ft | 249 kts | 272° |
| 2026-04-21 05:56 | 44.89376 | -0.33595 | 9832 ft | 250 kts | 265° |
| 2026-04-21 05:56 | 44.88938 | -0.35955 | 9584 ft | 251 kts | 244° |
| 2026-04-21 05:56 | 44.87936 | -0.37955 | 9338 ft | 252 kts | 225° |
| 2026-04-21 05:57 | 44.86651 | -0.39643 | 9087 ft | 253 kts | 223° |
| 2026-04-21 05:57 | 44.85363 | -0.41333 | 8842 ft | 253 kts | 223° |
| 2026-04-21 05:57 | 44.84076 | -0.43021 | 8594 ft | 252 kts | 223° |
| 2026-04-21 05:57 | 44.82795 | -0.44705 | 8350 ft | 252 kts | 223° |
| 2026-04-21 05:58 | 44.81521 | -0.46385 | 8101 ft | 251 kts | 223° |
| 2026-04-21 05:58 | 44.80250 | -0.48063 | 7857 ft | 250 kts | 223° |
| 2026-04-21 05:58 | 44.78983 | -0.49733 | 7612 ft | 249 kts | 223° |
| 2026-04-21 05:58 | 44.77717 | -0.51399 | 7362 ft | 249 kts | 223° |
| 2026-04-21 05:59 | 44.76457 | -0.53055 | 7111 ft | 247 kts | 223° |
| 2026-04-21 05:59 | 44.75199 | -0.54703 | 6874 ft | 247 kts | 223° |
| 2026-04-21 05:59 | 44.73946 | -0.56348 | 6632 ft | 247 kts | 223° |
| 2026-04-21 06:00 | 44.71450 | -0.59632 | 6147 ft | 245 kts | 223° |
| 2026-04-21 06:00 | 44.70208 | -0.61264 | 5907 ft | 244 kts | 223° |
| 2026-04-21 06:00 | 44.68972 | -0.62887 | 5662 ft | 243 kts | 222° |
| 2026-04-21 06:00 | 44.67735 | -0.64509 | 5417 ft | 243 kts | 222° |
| 2026-04-21 06:01 | 44.66518 | -0.66151 | 5217 ft | 243 kts | 229° |
| 2026-04-21 06:01 | 44.65656 | -0.68180 | 4995 ft | 243 kts | 250° |
| 2026-04-21 06:01 | 44.65367 | -0.70509 | 4693 ft | 243 kts | 271° |
| 2026-04-21 06:01 | 44.65541 | -0.72868 | 4383 ft | 243 kts | 277° |
| 2026-04-21 06:02 | 44.65740 | -0.75228 | 4074 ft | 244 kts | 277° |
| 2026-04-21 06:02 | 44.66011 | -0.77572 | 3768 ft | 243 kts | 288° |
| 2026-04-21 06:02 | 44.66746 | -0.79687 | 3464 ft | 242 kts | 308° |
| 2026-04-21 06:02 | 44.67884 | -0.81412 | 3166 ft | 241 kts | 317° |
| 2026-04-21 06:03 | 44.69063 | -0.83039 | 2999 ft | 232 kts | 317° |
| 2026-04-21 06:03 | 44.70174 | -0.84586 | 2994 ft | 217 kts | 318° |
| 2026-04-21 06:03 | 44.71369 | -0.85713 | 3018 ft | 197 kts | 349° |
| 2026-04-21 06:03 | 44.72632 | -0.85693 | 2935 ft | 175 kts | 23° |
| 2026-04-21 06:04 | 44.73607 | -0.84757 | 2674 ft | 168 kts | 49° |
| 2026-04-21 06:04 | 44.74418 | -0.83591 | 2442 ft | 165 kts | 47° |
| 2026-04-21 06:04 | 44.75204 | -0.82472 | 2234 ft | 161 kts | 47° |
| 2026-04-21 06:04 | 44.75988 | -0.81356 | 2012 ft | 155 kts | 47° |
| 2026-04-21 06:05 | 44.76710 | -0.80328 | 1800 ft | 144 kts | 47° |
| 2026-04-21 06:05 | 44.77386 | -0.79363 | 1606 ft | 135 kts | 47° |
| 2026-04-21 06:05 | 44.78035 | -0.78436 | 1404 ft | 131 kts | 46° |
| 2026-04-21 06:05 | 44.78675 | -0.77523 | 1194 ft | 131 kts | 46° |
| 2026-04-21 06:06 | 44.79313 | -0.76613 | 990 ft | 130 kts | 46° |
| 2026-04-21 06:06 | 44.79951 | -0.75708 | 798 ft | 130 kts | 46° |
| 2026-04-21 06:06 | 44.80589 | -0.74803 | 599 ft | 130 kts | 46° |
| 2026-04-21 06:06 | 44.81222 | -0.73901 | 416 ft | 130 kts | 46° |
| 2026-04-21 06:07 | 44.81850 | -0.72990 | 235 ft | 130 kts | 47° |
| 2026-04-21 06:07 | 44.82452 | -0.72124 | 170 ft | 110 kts | 46° |
| 2026-04-21 06:07 | 44.82781 | -0.71656 | 171 ft | 33 kts | 45° |
| 2026-04-21 06:07 | 44.82949 | -0.71414 | 167 ft | 34 kts | 46° |
| 2026-04-21 06:08 | 44.83005 | -0.71247 | 168 ft | 17 kts | 104° |
| 2026-04-21 06:08 | 44.82972 | -0.71085 | 169 ft | 18 kts | 107° |
| 2026-04-21 06:08 | 44.82934 | -0.70908 | 170 ft | 20 kts | 106° |
| 2026-04-21 06:08 | 44.82894 | -0.70712 | 170 ft | 22 kts | 106° |
| 2026-04-21 06:09 | 44.82848 | -0.70498 | 170 ft | 24 kts | 107° |
| 2026-04-21 06:09 | 44.82803 | -0.70282 | 170 ft | 15 kts | 106° |
| 2026-04-21 06:09 | 44.82803 | -0.70187 | 170 ft | 7 kts | 45° |
| 2026-04-21 06:09 | 44.82832 | -0.70133 | 170 ft | 8 kts | 82° |
| 2026-04-21 06:10 | 44.82816 | -0.70042 | 170 ft | 10 kts | 106° |
| 2026-04-21 06:10 | 44.82798 | -0.69956 | 170 ft | 7 kts | 106° |
| 2026-04-21 06:10 | 44.82808 | -0.69934 | 169 ft | 4 kts | 38° |
| 2026-04-21 06:10 | 44.82836 | -0.69920 | 169 ft | 4 kts | 16° |
| 2026-04-21 06:11 | 44.82848 | -0.69915 | 169 ft | 0 kts | 16° |